createdAt,value
2019-01-11T00:01:36.253Z,46.22
2019-01-11T00:04:04.373Z,46.44
2019-01-11T00:06:32.508Z,46.35
2019-01-11T00:09:00.736Z,46.15
2019-01-11T00:11:28.916Z,46.29
2019-01-11T00:13:57.054Z,46.26
2019-01-11T00:16:25.183Z,46.26
2019-01-11T00:18:53.399Z,46.03
2019-01-11T00:21:21.554Z,46.11
2019-01-11T00:23:49.685Z,46.07
2019-01-11T00:26:17.830Z,46.06
2019-01-11T00:28:45.990Z,46.10
2019-01-11T00:31:14.118Z,45.92
2019-01-11T00:33:42.274Z,46.17
2019-01-11T00:36:10.385Z,46.21
2019-01-11T00:38:38.510Z,46.20
2019-01-11T00:41:06.638Z,46.10
2019-01-11T00:43:34.783Z,45.99
2019-01-11T00:46:02.917Z,46.00
2019-01-11T00:48:31.043Z,45.99
2019-01-11T00:50:59.157Z,45.99
2019-01-11T00:53:27.291Z,46.04
2019-01-11T00:55:55.393Z,46.09
2019-01-11T00:58:23.555Z,46.04
2019-01-11T01:00:51.672Z,46.13
2019-01-11T01:03:19.793Z,46.10
2019-01-11T01:05:47.909Z,45.91
2019-01-11T01:08:16.039Z,46.08
2019-01-11T01:10:44.177Z,45.93
2019-01-11T01:13:12.341Z,46.02
2019-01-11T01:15:40.496Z,46.05
2019-01-11T01:18:08.621Z,45.91
2019-01-11T01:20:42.802Z,46.13
2019-01-11T01:23:10.951Z,45.98
2019-01-11T01:25:39.084Z,45.97
2019-01-11T01:28:07.301Z,46.10
2019-01-11T01:30:35.421Z,46.04
2019-01-11T01:33:03.559Z,45.86
2019-01-11T01:35:31.696Z,45.94
2019-01-11T01:37:59.827Z,45.90
2019-01-11T01:40:27.946Z,45.95
2019-01-11T01:42:56.053Z,45.82
2019-01-11T01:45:24.169Z,45.79
2019-01-11T01:47:52.330Z,45.80
2019-01-11T01:50:20.449Z,45.89
2019-01-11T01:52:48.575Z,45.88
2019-01-11T01:55:16.705Z,45.78
2019-01-11T01:57:44.817Z,45.77
2019-01-11T02:00:14.104Z,45.84
2019-01-11T02:02:42.222Z,45.82
2019-01-11T02:05:10.587Z,45.91
2019-01-11T02:07:38.793Z,45.88
2019-01-11T02:10:07.621Z,45.93
2019-01-11T02:12:35.817Z,45.77
2019-01-11T02:15:04.051Z,45.85
2019-01-11T02:17:32.193Z,45.75
2019-01-11T02:20:00.383Z,45.92
2019-01-11T02:22:28.508Z,45.96
2019-01-11T02:24:56.633Z,45.94
2019-01-11T02:27:24.765Z,45.97
2019-01-11T02:29:52.918Z,45.86
2019-01-11T02:32:21.044Z,45.83
2019-01-11T02:34:49.145Z,45.87
2019-01-11T02:37:17.274Z,45.89
2019-01-11T02:39:45.398Z,45.91
2019-01-11T02:42:13.546Z,45.98
2019-01-11T02:44:41.658Z,45.85
2019-01-11T02:47:09.812Z,45.85
2019-01-11T02:49:40.284Z,45.91
2019-01-11T02:52:07.882Z,45.69
2019-01-11T02:54:36.049Z,45.81
2019-01-11T02:57:04.176Z,45.73
2019-01-11T02:59:32.314Z,45.67
2019-01-11T03:02:00.435Z,45.70
2019-01-11T03:04:28.557Z,45.72
2019-01-11T03:06:56.730Z,45.84
2019-01-11T03:09:24.852Z,45.85
2019-01-11T03:11:53.097Z,45.86
2019-01-11T03:14:21.279Z,45.95
2019-01-11T03:16:49.457Z,45.85
2019-01-11T03:19:17.704Z,45.89
2019-01-11T03:21:45.821Z,45.74
2019-01-11T03:24:13.981Z,45.82
2019-01-11T03:26:42.390Z,45.86
2019-01-11T03:29:10.511Z,45.92
2019-01-11T03:31:38.633Z,45.86
2019-01-11T03:34:06.846Z,45.78
2019-01-11T03:36:34.981Z,45.87
2019-01-11T03:39:04.329Z,45.94
2019-01-11T03:41:32.455Z,45.84
2019-01-11T03:44:00.887Z,45.79
2019-01-11T03:46:28.999Z,45.78
2019-01-11T03:48:57.238Z,45.72
2019-01-11T03:51:25.358Z,45.78
2019-01-11T03:53:53.497Z,45.65
2019-01-11T03:56:21.627Z,45.76
2019-01-11T03:58:49.755Z,45.89
2019-01-11T04:01:17.909Z,45.69
2019-01-11T04:03:46.022Z,45.64
2019-01-11T04:06:14.148Z,45.64
2019-01-11T04:08:42.291Z,45.70
2019-01-11T04:11:10.414Z,45.62
2019-01-11T04:13:38.522Z,45.82
2019-01-11T04:16:06.688Z,45.91
2019-01-11T04:18:36.550Z,45.78
2019-01-11T04:21:04.692Z,45.82
2019-01-11T04:23:32.813Z,45.75
2019-01-11T04:26:00.994Z,45.84
2019-01-11T04:28:29.145Z,45.85
2019-01-11T04:30:57.274Z,45.74
2019-01-11T04:33:25.426Z,45.74
2019-01-11T04:35:53.532Z,45.78
2019-01-11T04:38:21.752Z,45.72
2019-01-11T04:40:49.885Z,45.74
2019-01-11T04:43:18.014Z,45.81
2019-01-11T04:45:46.146Z,45.76
2019-01-11T04:48:14.269Z,45.88
2019-01-11T04:50:42.376Z,45.71
2019-01-11T04:53:10.504Z,45.75
2019-01-11T04:55:38.623Z,45.75
2019-01-11T04:58:06.870Z,45.81
2019-01-11T05:00:34.986Z,45.87
2019-01-11T05:03:03.107Z,45.67
2019-01-11T05:05:31.338Z,45.80
2019-01-11T05:07:59.452Z,45.83
2019-01-11T05:10:27.598Z,45.90
2019-01-11T05:12:56.526Z,45.69
2019-01-11T05:15:24.742Z,45.77
2019-01-11T05:17:52.858Z,45.70
2019-01-11T05:20:20.972Z,45.82
2019-01-11T05:22:49.135Z,45.74
2019-01-11T05:25:17.253Z,45.83
2019-01-11T05:27:45.378Z,45.83
2019-01-11T05:30:17.388Z,45.78
2019-01-11T05:32:45.523Z,45.69
2019-01-11T05:35:13.726Z,45.78
2019-01-11T05:37:41.842Z,45.76
2019-01-11T05:40:11.562Z,45.73
2019-01-11T05:42:39.692Z,45.67
2019-01-11T05:45:07.837Z,45.69
2019-01-11T05:47:36.039Z,45.68
2019-01-11T05:50:04.443Z,45.72
2019-01-11T05:52:32.583Z,45.66
2019-01-11T05:55:00.707Z,45.92
2019-01-11T05:57:28.835Z,45.91
2019-01-11T05:59:57.659Z,45.71
2019-01-11T06:02:25.793Z,45.69
2019-01-11T06:05:03.824Z,45.77
2019-01-11T06:07:49.933Z,45.86
2019-01-11T06:10:18.063Z,45.89
2019-01-11T06:12:46.181Z,45.78
2019-01-11T06:15:14.306Z,45.66
2019-01-11T06:17:42.452Z,45.83
2019-01-11T06:20:12.209Z,45.82
2019-01-11T06:22:40.325Z,45.77
2019-01-11T06:25:08.687Z,45.79
2019-01-11T06:27:38.289Z,45.61
2019-01-11T06:30:07.175Z,45.79
2019-01-11T06:32:35.331Z,45.58
2019-01-11T06:35:03.462Z,45.54
2019-01-11T06:37:31.588Z,45.60
2019-01-11T06:39:59.709Z,45.70
2019-01-11T06:42:27.866Z,45.73
2019-01-11T06:44:55.985Z,45.63
2019-01-11T06:47:24.145Z,45.87
2019-01-11T06:49:52.289Z,45.91
2019-01-11T06:52:20.419Z,45.58
2019-01-11T06:54:48.602Z,45.72
2019-01-11T06:57:16.799Z,45.64
2019-01-11T06:59:44.938Z,45.87
2019-01-11T07:02:13.058Z,45.87
2019-01-11T07:04:41.170Z,45.81
2019-01-11T07:07:09.322Z,45.76
2019-01-11T07:09:37.449Z,45.83
2019-01-11T07:12:05.565Z,45.85
2019-01-11T07:14:33.695Z,45.74
2019-01-11T07:17:01.821Z,45.80
2019-01-11T07:19:29.974Z,45.84
2019-01-11T07:21:58.285Z,45.82
2019-01-11T07:24:26.438Z,45.76
2019-01-11T07:26:54.570Z,45.67
2019-01-11T07:29:22.690Z,45.85
2019-01-11T07:31:50.829Z,45.64
2019-01-11T07:34:18.954Z,45.72
2019-01-11T07:36:49.634Z,45.82
2019-01-11T07:39:33.857Z,45.69
2019-01-11T07:42:02.045Z,45.78
2019-01-11T07:44:30.195Z,45.78
2019-01-11T07:46:58.328Z,45.86
2019-01-11T07:49:26.468Z,45.75
2019-01-11T07:51:54.613Z,45.72
2019-01-11T07:54:22.725Z,45.81
2019-01-11T07:56:51.215Z,45.86
2019-01-11T07:59:20.850Z,45.78
2019-01-11T08:01:49.007Z,45.82
2019-01-11T08:04:17.231Z,45.86
2019-01-11T08:06:45.342Z,45.82
2019-01-11T08:09:13.460Z,45.78
2019-01-11T08:11:41.598Z,45.89
2019-01-11T08:14:09.737Z,45.97
2019-01-11T08:16:37.890Z,45.94
2019-01-11T08:19:06.014Z,45.96
2019-01-11T08:21:34.133Z,45.90
2019-01-11T08:24:02.251Z,46.00
2019-01-11T08:26:30.380Z,45.86
2019-01-11T08:28:58.530Z,45.79
2019-01-11T08:31:26.665Z,45.96
2019-01-11T08:33:54.810Z,45.93
2019-01-11T08:36:22.971Z,45.84
2019-01-11T08:38:51.094Z,45.92
2019-01-11T08:41:19.234Z,46.01
2019-01-11T08:43:47.398Z,46.02
2019-01-11T08:46:15.521Z,46.06
2019-01-11T08:48:43.647Z,46.03
2019-01-11T08:51:11.761Z,45.99
2019-01-11T08:53:39.891Z,45.97
2019-01-11T08:56:08.485Z,46.08
2019-01-11T08:58:36.961Z,45.72
2019-01-11T09:01:05.081Z,45.75
2019-01-11T09:03:33.301Z,45.83
2019-01-11T09:06:01.429Z,45.79
2019-01-11T09:08:29.567Z,45.95
2019-01-11T09:10:57.754Z,45.89
2019-01-11T09:13:25.869Z,45.82
2019-01-11T09:15:53.989Z,45.96
2019-01-11T09:18:35.217Z,45.91
2019-01-11T09:21:09.202Z,45.78
2019-01-11T09:23:33.141Z,45.73
2019-01-11T09:26:02.866Z,45.78
2019-01-11T09:28:30.977Z,45.84
2019-01-11T09:30:59.130Z,45.95
2019-01-11T09:33:27.276Z,45.87
2019-01-11T09:35:55.399Z,45.87
2019-01-11T09:38:23.526Z,46.01
2019-01-11T09:40:51.646Z,46.03
2019-01-11T09:43:19.848Z,46.15
2019-01-11T09:45:47.999Z,46.14
2019-01-11T09:48:16.118Z,46.04
2019-01-11T09:50:44.242Z,46.05
2019-01-11T09:53:12.391Z,46.11
2019-01-11T09:55:40.535Z,46.07
2019-01-11T09:58:08.639Z,46.00
2019-01-11T10:00:36.749Z,45.99
2019-01-11T10:03:09.726Z,45.97
2019-01-11T10:05:37.877Z,45.95
2019-01-11T10:08:06.012Z,45.95
2019-01-11T10:10:34.121Z,46.05
2019-01-11T10:13:02.358Z,46.12
2019-01-11T10:15:30.580Z,46.11
2019-01-11T10:17:58.701Z,46.11
2019-01-11T10:20:26.816Z,46.22
2019-01-11T10:22:54.982Z,46.24
2019-01-11T10:25:23.102Z,46.14
2019-01-11T10:27:51.217Z,46.30
2019-01-11T10:30:19.722Z,46.18
2019-01-11T10:32:47.841Z,46.20
2019-01-11T10:35:15.964Z,46.21
2019-01-11T10:37:44.251Z,46.17
2019-01-11T10:40:13.104Z,46.21
2019-01-11T10:42:41.236Z,46.16
2019-01-11T10:45:10.882Z,46.32
2019-01-11T10:47:38.996Z,46.19
2019-01-11T10:50:07.547Z,46.24
2019-01-11T10:52:35.660Z,46.40
2019-01-11T10:55:03.834Z,46.41
2019-01-11T10:57:31.963Z,46.32
2019-01-11T11:00:00.091Z,46.33
2019-01-11T11:02:28.227Z,46.26
2019-01-11T11:04:56.350Z,46.19
2019-01-11T11:07:24.506Z,46.17
2019-01-11T11:09:52.737Z,46.22
2019-01-11T11:12:20.867Z,46.15
2019-01-11T11:14:48.990Z,46.23
2019-01-11T11:17:17.122Z,46.14
2019-01-11T11:19:45.262Z,46.04
2019-01-11T11:22:13.415Z,46.26
2019-01-11T11:24:41.546Z,46.24
2019-01-11T11:27:09.670Z,46.29
2019-01-11T11:29:37.776Z,46.17
2019-01-11T11:32:05.929Z,46.26
2019-01-11T11:34:35.177Z,46.21
2019-01-11T11:37:03.873Z,46.19
2019-01-11T11:39:31.993Z,46.21
2019-01-11T11:42:00.154Z,46.12
2019-01-11T11:44:28.278Z,46.19
2019-01-11T11:46:56.410Z,46.28
2019-01-11T11:49:24.537Z,46.25
2019-01-11T11:51:52.645Z,46.20
2019-01-11T11:54:20.885Z,46.26
2019-01-11T11:56:49.022Z,46.28
2019-01-11T11:59:17.223Z,46.24
2019-01-11T12:01:46.689Z,46.39
2019-01-11T12:04:14.998Z,46.31
2019-01-11T12:06:43.149Z,46.31
2019-01-11T12:09:11.279Z,46.24
2019-01-11T12:11:39.441Z,46.26
2019-01-11T12:14:07.583Z,46.36
2019-01-11T12:16:35.711Z,46.45
2019-01-11T12:19:03.853Z,46.39
2019-01-11T12:21:31.976Z,46.47
2019-01-11T12:24:00.102Z,46.33
2019-01-11T12:26:28.326Z,46.30
2019-01-11T12:28:56.472Z,46.21
2019-01-11T12:31:24.597Z,46.30
2019-01-11T12:33:52.810Z,46.33
2019-01-11T12:36:20.942Z,46.25
2019-01-11T12:38:49.056Z,46.46
2019-01-11T12:41:17.214Z,46.38
2019-01-11T12:43:45.327Z,46.25
2019-01-11T12:46:13.463Z,46.33
2019-01-11T12:48:41.569Z,46.40
2019-01-11T12:51:09.697Z,46.39
2019-01-11T12:53:37.840Z,46.44
2019-01-11T12:56:05.994Z,46.31
2019-01-11T12:58:34.081Z,46.41
2019-01-11T13:01:02.212Z,46.32
2019-01-11T13:03:30.324Z,46.37
2019-01-11T13:05:58.469Z,46.42
2019-01-11T13:08:26.595Z,46.49
2019-01-11T13:10:54.777Z,46.45
2019-01-11T13:13:22.897Z,46.17
2019-01-11T13:15:51.008Z,46.40
2019-01-11T13:18:19.174Z,46.32
2019-01-11T13:20:47.293Z,46.35
2019-01-11T13:23:15.418Z,46.41
2019-01-11T13:25:43.528Z,46.37
2019-01-11T13:28:11.663Z,46.31
2019-01-11T13:30:39.805Z,46.38
2019-01-11T13:33:07.949Z,46.42
2019-01-11T13:35:36.070Z,46.39
2019-01-11T13:38:04.190Z,46.42
2019-01-11T13:40:32.309Z,46.42
2019-01-11T13:43:00.566Z,46.39
2019-01-11T13:45:28.714Z,46.47
2019-01-11T13:47:56.833Z,46.43
2019-01-11T13:50:38.180Z,46.46
2019-01-11T13:53:06.999Z,46.38
2019-01-11T13:55:35.135Z,46.34
2019-01-11T13:58:03.245Z,46.39
2019-01-11T14:00:31.370Z,46.43
2019-01-11T14:02:59.495Z,46.49
2019-01-11T14:05:27.658Z,46.42
2019-01-11T14:07:55.765Z,46.30
2019-01-11T14:10:23.890Z,46.25
2019-01-11T14:12:52.027Z,46.33
2019-01-11T14:15:20.129Z,46.44
2019-01-11T14:17:48.277Z,46.35
2019-01-11T14:20:16.398Z,46.41
2019-01-11T14:22:44.630Z,46.46
2019-01-11T14:25:12.756Z,46.32
2019-01-11T14:27:40.882Z,46.55
2019-01-11T14:30:09.049Z,46.53
2019-01-11T14:32:37.174Z,46.54
2019-01-11T14:35:05.920Z,46.58
2019-01-11T14:37:34.083Z,46.64
2019-01-11T14:40:02.223Z,46.49
2019-01-11T14:42:30.343Z,46.49
2019-01-11T14:44:58.463Z,46.46
2019-01-11T14:47:26.591Z,46.58
2019-01-11T14:49:54.729Z,46.59
2019-01-11T14:52:22.858Z,46.58
2019-01-11T14:54:50.982Z,46.47
2019-01-11T14:57:19.131Z,46.46
2019-01-11T14:59:47.241Z,46.43
2019-01-11T15:02:15.362Z,46.40
2019-01-11T15:04:43.495Z,46.46
2019-01-11T15:07:11.597Z,46.51
2019-01-11T15:09:39.750Z,46.45
2019-01-11T15:12:07.879Z,46.57
2019-01-11T15:14:36.030Z,46.60
2019-01-11T15:17:04.139Z,46.61
2019-01-11T15:19:32.365Z,46.45
2019-01-11T15:22:00.511Z,46.41
2019-01-11T15:24:28.642Z,46.60
2019-01-11T15:26:56.758Z,46.66
2019-01-11T15:29:24.912Z,46.49
2019-01-11T15:31:53.029Z,46.62
2019-01-11T15:34:21.140Z,46.60
2019-01-11T15:36:49.281Z,46.59
2019-01-11T15:39:17.465Z,46.69
2019-01-11T15:41:45.622Z,46.68
2019-01-11T15:44:13.901Z,46.73
2019-01-11T15:46:42.044Z,46.73
2019-01-11T15:49:10.153Z,46.71
2019-01-11T15:51:38.276Z,46.77
2019-01-11T15:54:06.388Z,46.74
2019-01-11T15:56:34.534Z,46.79
2019-01-11T15:59:02.644Z,46.85
2019-01-11T16:01:30.768Z,46.76
2019-01-11T16:03:58.881Z,46.74
2019-01-11T16:06:31.129Z,46.79
2019-01-11T16:09:16.220Z,46.88
2019-01-11T16:11:46.227Z,46.93
2019-01-11T16:14:42.326Z,46.86
2019-01-11T16:17:11.883Z,46.85
2019-01-11T16:19:40.022Z,46.94
2019-01-11T16:22:08.154Z,46.94
2019-01-11T16:24:36.273Z,46.79
2019-01-11T16:27:04.495Z,47.01
2019-01-11T16:29:32.624Z,46.88
2019-01-11T16:32:00.767Z,46.92
2019-01-11T16:34:28.994Z,46.92
2019-01-11T16:36:57.109Z,47.02
2019-01-11T16:39:25.237Z,46.86
2019-01-11T16:41:53.439Z,46.82
2019-01-11T16:44:21.591Z,46.92
2019-01-11T16:46:49.882Z,46.87
2019-01-11T16:49:18.108Z,46.77
2019-01-11T16:51:46.230Z,46.71
2019-01-11T16:54:14.450Z,46.67
2019-01-11T16:56:42.592Z,46.75
2019-01-11T16:59:11.426Z,46.66
2019-01-11T17:01:39.576Z,46.88
2019-01-11T17:04:07.697Z,46.91
2019-01-11T17:06:35.829Z,46.97
2019-01-11T17:09:05.627Z,46.93
2019-01-11T17:11:33.748Z,46.98
2019-01-11T17:14:01.858Z,47.02
2019-01-11T17:16:29.990Z,46.92
2019-01-11T17:18:58.105Z,47.07
2019-01-11T17:21:26.238Z,47.01
2019-01-11T17:23:54.366Z,47.01
2019-01-11T17:26:22.490Z,46.93
2019-01-11T17:28:50.632Z,46.95
2019-01-11T17:31:18.754Z,47.04
2019-01-11T17:33:46.882Z,47.06
2019-01-11T17:36:15.015Z,47.06
2019-01-11T17:38:43.223Z,46.93
2019-01-11T17:41:11.378Z,47.06
2019-01-11T17:43:39.503Z,46.78
2019-01-11T17:46:07.618Z,46.91
2019-01-11T17:48:35.743Z,46.89
2019-01-11T17:51:03.882Z,46.91
2019-01-11T17:53:32.031Z,46.92
2019-01-11T17:56:00.393Z,47.03
2019-01-11T17:58:28.627Z,47.04
2019-01-11T18:00:56.744Z,47.13
2019-01-11T18:03:25.409Z,47.17
2019-01-11T18:05:53.613Z,47.18
2019-01-11T18:08:21.744Z,47.17
2019-01-11T18:10:49.860Z,47.17
2019-01-11T18:13:18.080Z,47.11
2019-01-11T18:15:46.190Z,47.13
2019-01-11T18:18:14.342Z,47.17
2019-01-11T18:20:42.467Z,47.14
2019-01-11T18:23:10.621Z,47.11
2019-01-11T18:25:38.771Z,47.07
2019-01-11T18:28:06.899Z,47.14
2019-01-11T18:30:35.013Z,47.16
2019-01-11T18:33:03.134Z,47.16
2019-01-11T18:35:31.258Z,47.03
2019-01-11T18:37:59.401Z,47.09
2019-01-11T18:40:27.620Z,47.04
2019-01-11T18:42:55.798Z,47.13
2019-01-11T18:45:28.609Z,47.06
2019-01-11T18:47:53.676Z,46.98
2019-01-11T18:50:22.557Z,47.02
2019-01-11T18:52:50.681Z,47.14
2019-01-11T18:55:18.807Z,47.04
2019-01-11T18:57:46.965Z,47.14
2019-01-11T19:00:16.371Z,47.15
2019-01-11T19:02:44.559Z,47.20
2019-01-11T19:05:12.998Z,47.25
2019-01-11T19:07:45.924Z,47.19
2019-01-11T19:10:11.626Z,46.97
2019-01-11T19:12:39.770Z,47.09
2019-01-11T19:15:09.209Z,47.13
2019-01-11T19:17:37.337Z,47.06
2019-01-11T19:20:09.146Z,47.12
2019-01-11T19:22:37.270Z,47.21
2019-01-11T19:25:06.718Z,47.13
2019-01-11T19:27:34.853Z,47.18
2019-01-11T19:30:02.994Z,47.08
2019-01-11T19:32:31.115Z,47.25
2019-01-11T19:34:59.242Z,47.19
2019-01-11T19:37:27.376Z,47.25
2019-01-11T19:39:55.532Z,47.26
2019-01-11T19:42:23.654Z,47.25
2019-01-11T19:44:51.766Z,47.18
2019-01-11T19:47:19.904Z,47.09
2019-01-11T19:49:48.040Z,47.08
2019-01-11T19:52:16.153Z,47.06
2019-01-11T19:54:44.284Z,47.20
2019-01-11T19:57:12.410Z,47.22
2019-01-11T19:59:40.645Z,47.24
2019-01-11T20:02:08.774Z,47.25
2019-01-11T20:04:36.885Z,47.25
2019-01-11T20:07:05.053Z,47.32
2019-01-11T20:09:33.212Z,47.22
2019-01-11T20:12:01.370Z,47.25
2019-01-11T20:14:29.478Z,47.27
2019-01-11T20:16:57.602Z,47.23
2019-01-11T20:19:25.713Z,47.35
2019-01-11T20:21:53.831Z,47.45
2019-01-11T20:24:22.086Z,47.44
2019-01-11T20:26:50.250Z,47.24
2019-01-11T20:29:18.362Z,47.39
2019-01-11T20:31:46.491Z,47.35
2019-01-11T20:34:14.606Z,47.40
2019-01-11T20:36:48.794Z,47.39
2019-01-11T20:39:16.943Z,47.41
2019-01-11T20:41:45.058Z,47.46
2019-01-11T20:44:13.314Z,47.37
2019-01-11T20:46:41.432Z,47.38
2019-01-11T20:49:09.646Z,47.52
2019-01-11T20:51:37.810Z,47.54
2019-01-11T20:54:05.934Z,47.48
2019-01-11T20:56:34.378Z,47.46
2019-01-11T20:59:02.502Z,47.55
2019-01-11T21:01:30.613Z,47.41
2019-01-11T21:03:58.753Z,47.44
2019-01-11T21:06:26.953Z,47.40
2019-01-11T21:08:55.081Z,47.61
2019-01-11T21:11:23.201Z,47.53
2019-01-11T21:13:51.385Z,47.47
2019-01-11T21:16:19.463Z,47.40
2019-01-11T21:18:47.585Z,47.47
2019-01-11T21:21:15.701Z,47.45
2019-01-11T21:23:48.626Z,47.40
2019-01-11T21:26:13.635Z,47.34
2019-01-11T21:28:41.749Z,47.44
2019-01-11T21:31:09.902Z,47.40
2019-01-11T21:33:38.009Z,47.33
2019-01-11T21:36:06.138Z,47.34
2019-01-11T21:38:34.254Z,47.30
2019-01-11T21:41:02.378Z,47.35
2019-01-11T21:43:30.502Z,47.25
2019-01-11T21:46:03.288Z,47.42
2019-01-11T21:48:28.409Z,47.28
2019-01-11T21:50:56.531Z,47.33
2019-01-11T21:53:24.662Z,47.14
2019-01-11T21:55:52.776Z,47.28
2019-01-11T21:58:20.927Z,47.30
2019-01-11T22:00:49.466Z,47.17
2019-01-11T22:03:21.463Z,47.27
2019-01-11T22:05:49.570Z,47.17
2019-01-11T22:08:17.719Z,47.14
2019-01-11T22:10:45.839Z,47.01
2019-01-11T22:13:13.974Z,47.12
2019-01-11T22:15:42.089Z,47.14
2019-01-11T22:18:10.216Z,47.22
2019-01-11T22:20:38.357Z,47.24
2019-01-11T22:23:06.477Z,47.22
2019-01-11T22:25:34.613Z,47.17
2019-01-11T22:28:02.867Z,47.13
2019-01-11T22:30:30.975Z,47.06
2019-01-11T22:32:59.391Z,47.03
2019-01-11T22:35:27.521Z,47.13
2019-01-11T22:37:55.632Z,47.21
2019-01-11T22:40:23.940Z,47.03
2019-01-11T22:42:53.337Z,47.19
2019-01-11T22:45:21.515Z,47.24
2019-01-11T22:47:49.657Z,47.19
2019-01-11T22:50:17.986Z,47.21
2019-01-11T22:52:46.119Z,47.14
2019-01-11T22:55:14.514Z,47.12
2019-01-11T22:57:42.638Z,47.15
2019-01-11T23:00:33.353Z,47.20
2019-01-11T23:03:01.471Z,47.25
2019-01-11T23:05:29.666Z,47.16
2019-01-11T23:07:59.249Z,47.17
2019-01-11T23:10:40.230Z,47.33
2019-01-11T23:13:10.270Z,47.41
2019-01-11T23:15:39.737Z,47.36
2019-01-11T23:18:18.037Z,47.38
2019-01-11T23:20:47.142Z,47.47
2019-01-11T23:23:15.261Z,47.53
2019-01-11T23:25:43.381Z,47.48
2019-01-11T23:28:11.497Z,47.50
2019-01-11T23:30:39.641Z,47.36
2019-01-11T23:33:07.825Z,47.39
2019-01-11T23:35:35.969Z,47.37
2019-01-11T23:38:04.102Z,47.46
2019-01-11T23:40:32.248Z,47.39
2019-01-11T23:43:00.393Z,47.41
2019-01-11T23:45:28.610Z,47.50
2019-01-11T23:47:56.738Z,47.49
2019-01-11T23:50:24.848Z,47.50
2019-01-11T23:52:52.966Z,47.54
2019-01-11T23:55:21.121Z,47.45
2019-01-11T23:57:49.236Z,47.37
